LSZALIME

Guest
Details From LSZA - Lugano
To LIME - Bergamo Orio Al Serio
Flight Number -
Tags generated
Created
Modified
Stats Distance 39 nm / 73 km
Max Altitude 2,400 ft / 732 m
Waypoints 3
Social Downloads 1
Likes 0
Share VATSIM

Download

Looking for another format? Having issues loading an existing format? Contact us
Advertisement - Login to hide

Notes

Basic altitude profile: - Ascent Rate: 2500ft/min - Ascent Speed: 250kts - Cruise Altitude: 35000ft - Cruise Speed: 420kts - Descent Rate: 1500ft/min - Descent Speed: 250kts Options: - Use NATs: yes - Use PACOTS: yes - Use low airways: yes - Use high airways: no

Route

LSZA PEPAG LIME

ID Type Via Altitude Latitude Longitude Leg Dist Tot Dist Heading (true) Name
O LSZA APT - 0 ft / 0 m 46.00428˚ 8.91058˚ - 0 nm - Lugano
PEPAG FIX - 2,400 ft / 732 m 45.98389˚ 9.07139˚ 6 nm 6 nm 100° / 100° -
O LIME APT - 0 ft / 0 m 45.67200˚ 9.70689˚ 32 nm 39 nm 125° / 125° Bergamo Orio Al Serio

Altitude Profile

Advertisement - Login to hide

LSZA

Details ICAO LSZA (LUG)
Name Lugano
Region Switzerland
Timezone Europe/Zurich (UTC+2.0)
Stats Elevation 915 ft / 279 m (AMSL)
Location 46.004275° 8.910579°
Runways 1
Magnetic Variation 2.474° E

METAR

LSZA 202320Z AUTO 17003KT 080V250 9999 FEW060 BKN120 13/13 Q1018

Decode

TAF

Not found

Departure Runways

ID Width Length Bearing (true) Bearing (mag) Surface Threshold Offset Overrun Length
01 98 ft / 30 m 4,430 ft / 1,350 m 18.79° 16.32° Asphalt 361 ft / 110 m 0 ft / 0 m
19 98 ft / 30 m 4,430 ft / 1,350 m 198.79° 196.32° Asphalt 673 ft / 205 m 0 ft / 0 m

LIME

Details ICAO LIME (BGY)
Name Bergamo Orio Al Serio
Region Italy
Timezone Europe/Rome (UTC+2.0)
Stats Elevation 779 ft / 237 m (AMSL)
Location 45.672004° 9.706892°
Runways 2
Magnetic Variation 2.653° E

METAR

LIME 202320Z 05006KT 350V080 9999 BKN060 14/12 Q1017 NOSIG

Decode

TAF

TAF LIME 202300Z 2100/2124 VRB05KT 9999 BKN050 TEMPO 2100/2103 4000 TSRA

Decode

Destination Runways

ID Width Length Bearing (true) Bearing (mag) Surface Threshold Offset Overrun Length
10 148 ft / 45 m 9,897 ft / 3,017 m 104.89° 102.24° Asphalt 312 ft / 95 m 0 ft / 0 m
12 59 ft / 18 m 2,665 ft / 812 m 121.47° 118.82° Asphalt 197 ft / 60 m 0 ft / 0 m
28 148 ft / 45 m 9,897 ft / 3,017 m 284.91° 282.26° Asphalt 712 ft / 217 m 0 ft / 0 m
30 59 ft / 18 m 2,665 ft / 812 m 301.48° 298.83° Asphalt 312 ft / 95 m 0 ft / 0 m

Approach Navaids

Runway Type Ident Frequency Range Bearing (true) Bearing (mag) Slope Elevation
28 Localiser BRM 108.70 MHz 18 nm / 33 km 285.08° 282.43° - 779 ft / 237 m (AMSL)
28 Glidescope BRM 108.70 MHz 10 nm / 19 km 284.90° 282.25° 3.00° 779 ft / 237 m (AMSL)
28 DME BRM 108.70 MHz 18 nm / 33 km - - - 779 ft / 237 m (AMSL)

Popular Alternatives